メインページ
METAR-TAF:

METAR-TAF

空港 :

Qaisumah, サウジアラビア

緯度: 28-19N, 経度: 046-07E, 海抜: 358m

現時点の気象観測

当レポートは24分前の18:00(UTC)に作成
無風
気温 17°C
湿度 82%
気圧 1016 hPa
視程10km以上
高度3500ftの千切れ雲あり

METAR: OEPA 171800Z 00000KT 9999 BKN035 17/14 Q1016 NOSIG

時間: 21:24 (18:24 UTC)

予報

当レポートは7時間24分前の11:00(UTC)に作成
予報は17日の 12時(UTC)から 18日の 18時(UTC)まで有効
南/南東の風 6kt、最大16ktの突風を伴う
視程: 7000m
高度4000ftの雲は散在している
高度10000ftの雲はほとんどない
17日の 12時(UTC)から 17日の 20時(UTC)まで一時的に
視程: 5000m
高度3500ftの雲はほとんどない, 積乱雲.
高度4000ftの千切れ雲あり
高度10000ftの雲は散在している
風塵, 激しい雷雨, 雨

TAF: OEPA 171100Z 1712/1818 15006G16KT 7000 SCT040 FEW100 TEMPO 1712/1720 5000 BLDU TSRA FEW035CB BKN040 SCT100

4,000以上の空港の気象観測と天気予報(METAR報とTAF報)

利用可能な観測所は地図上に黄色い丸と赤い丸で示す。

丸の上にカーソルを重ねると観測所名を参照できる。

次にクリックすると気象観測と天気予報を参照できる。

マップの切り替え:黒色「×」印の緑ボタンをクリックして拡大、「-」印の緑ボタンをクリックして縮小、緑色の三角印をクリックして隣りの地図に切り替え


METAR-TAF: